sensor_id;sensor_type;location;lat;lon;timestamp;temperature;humidity
25410;DHT22;13339;50.840;4.346;2023-06-04T00:02:13;18.40;96.30
25410;DHT22;13339;50.840;4.346;2023-06-04T00:04:39;18.30;96.50
25410;DHT22;13339;50.840;4.346;2023-06-04T00:07:05;18.20;96.60
25410;DHT22;13339;50.840;4.346;2023-06-04T00:09:30;18.00;96.80
25410;DHT22;13339;50.840;4.346;2023-06-04T00:11:56;17.90;97.20
25410;DHT22;13339;50.840;4.346;2023-06-04T00:14:22;17.90;97.20
25410;DHT22;13339;50.840;4.346;2023-06-04T00:16:47;17.80;97.30
25410;DHT22;13339;50.840;4.346;2023-06-04T00:19:13;17.80;97.60
25410;DHT22;13339;50.840;4.346;2023-06-04T00:21:39;17.80;97.60
25410;DHT22;13339;50.840;4.346;2023-06-04T00:24:05;17.90;97.40
25410;DHT22;13339;50.840;4.346;2023-06-04T00:26:31;17.80;97.50
25410;DHT22;13339;50.840;4.346;2023-06-04T00:28:56;17.70;98.20
25410;DHT22;13339;50.840;4.346;2023-06-04T00:31:22;17.70;98.00
25410;DHT22;13339;50.840;4.346;2023-06-04T00:33:48;17.80;97.90
25410;DHT22;13339;50.840;4.346;2023-06-04T00:36:14;17.70;98.00
25410;DHT22;13339;50.840;4.346;2023-06-04T00:38:40;17.50;98.30
25410;DHT22;13339;50.840;4.346;2023-06-04T00:41:05;17.40;98.50
25410;DHT22;13339;50.840;4.346;2023-06-04T00:43:31;17.30;99.30
25410;DHT22;13339;50.840;4.346;2023-06-04T00:45:58;17.20;99.00
25410;DHT22;13339;50.840;4.346;2023-06-04T00:48:24;17.30;99.10
25410;DHT22;13339;50.840;4.346;2023-06-04T00:50:53;17.40;99.00
25410;DHT22;13339;50.840;4.346;2023-06-04T00:53:19;17.40;99.00
25410;DHT22;13339;50.840;4.346;2023-06-04T00:55:45;17.40;99.10
25410;DHT22;13339;50.840;4.346;2023-06-04T00:58:11;17.20;99.30
25410;DHT22;13339;50.840;4.346;2023-06-04T01:00:37;17.10;99.60
25410;DHT22;13339;50.840;4.346;2023-06-04T01:03:07;17.10;99.80
25410;DHT22;13339;50.840;4.346;2023-06-04T01:05:37;17.00;99.90
25410;DHT22;13339;50.840;4.346;2023-06-04T01:08:06;16.80;99.90
25410;DHT22;13339;50.840;4.346;2023-06-04T01:10:34;16.70;99.90
25410;DHT22;13339;50.840;4.346;2023-06-04T01:13:00;16.60;99.90
25410;DHT22;13339;50.840;4.346;2023-06-04T01:15:26;16.60;99.90
25410;DHT22;13339;50.840;4.346;2023-06-04T01:17:58;16.60;99.90
25410;DHT22;13339;50.840;4.346;2023-06-04T01:20:43;16.60;99.90
25410;DHT22;13339;50.840;4.346;2023-06-04T01:25:42;16.60;99.90
25410;DHT22;13339;50.840;4.346;2023-06-04T01:28:11;16.60;99.90
25410;DHT22;13339;50.840;4.346;2023-06-04T01:30:38;16.70;99.90
25410;DHT22;13339;50.840;4.346;2023-06-04T01:33:13;16.90;99.90
25410;DHT22;13339;50.840;4.346;2023-06-04T01:35:39;16.80;99.90
25410;DHT22;13339;50.840;4.346;2023-06-04T01:38:05;16.80;99.90
25410;DHT22;13339;50.840;4.346;2023-06-04T01:40:31;16.70;99.90
25410;DHT22;13339;50.840;4.346;2023-06-04T01:42:57;16.80;99.90
25410;DHT22;13339;50.840;4.346;2023-06-04T01:45:24;16.80;99.90
25410;DHT22;13339;50.840;4.346;2023-06-04T01:47:51;16.60;99.90
25410;DHT22;13339;50.840;4.346;2023-06-04T01:50:16;16.30;99.90
25410;DHT22;13339;50.840;4.346;2023-06-04T01:52:42;16.10;99.90
25410;DHT22;13339;50.840;4.346;2023-06-04T01:55:10;16.00;99.90
25410;DHT22;13339;50.840;4.346;2023-06-04T01:57:38;16.10;99.90
25410;DHT22;13339;50.840;4.346;2023-06-04T02:00:05;16.00;99.90
25410;DHT22;13339;50.840;4.346;2023-06-04T02:02:35;15.90;99.90
25410;DHT22;13339;50.840;4.346;2023-06-04T02:05:04;15.80;99.90
25410;DHT22;13339;50.840;4.346;2023-06-04T02:07:37;15.60;99.90
25410;DHT22;13339;50.840;4.346;2023-06-04T02:10:05;15.60;99.90
25410;DHT22;13339;50.840;4.346;2023-06-04T02:12:31;15.50;99.90
25410;DHT22;13339;50.840;4.346;2023-06-04T02:14:57;15.50;99.90
25410;DHT22;13339;50.840;4.346;2023-06-04T02:17:22;15.50;99.90
25410;DHT22;13339;50.840;4.346;2023-06-04T02:19:48;15.50;99.90
25410;DHT22;13339;50.840;4.346;2023-06-04T02:22:18;15.60;99.90
25410;DHT22;13339;50.840;4.346;2023-06-04T02:24:44;15.60;99.90
25410;DHT22;13339;50.840;4.346;2023-06-04T02:27:11;15.80;99.90
25410;DHT22;13339;50.840;4.346;2023-06-04T02:29:39;15.80;99.90
25410;DHT22;13339;50.840;4.346;2023-06-04T02:32:05;15.80;99.90
25410;DHT22;13339;50.840;4.346;2023-06-04T02:34:31;15.90;99.90
25410;DHT22;13339;50.840;4.346;2023-06-04T02:36:57;15.70;99.90
25410;DHT22;13339;50.840;4.346;2023-06-04T02:39:23;15.50;99.90
25410;DHT22;13339;50.840;4.346;2023-06-04T02:41:49;15.60;99.90
25410;DHT22;13339;50.840;4.346;2023-06-04T02:44:14;15.60;99.90
25410;DHT22;13339;50.840;4.346;2023-06-04T02:46:40;15.60;99.90
25410;DHT22;13339;50.840;4.346;2023-06-04T02:49:06;15.60;99.90
25410;DHT22;13339;50.840;4.346;2023-06-04T02:51:31;15.60;99.90
25410;DHT22;13339;50.840;4.346;2023-06-04T02:53:58;15.60;99.90
25410;DHT22;13339;50.840;4.346;2023-06-04T02:56:23;15.50;99.90
25410;DHT22;13339;50.840;4.346;2023-06-04T02:58:53;15.40;99.90
25410;DHT22;13339;50.840;4.346;2023-06-04T03:01:24;15.50;99.90
25410;DHT22;13339;50.840;4.346;2023-06-04T03:03:52;15.30;99.90
25410;DHT22;13339;50.840;4.346;2023-06-04T03:06:18;15.30;99.90
25410;DHT22;13339;50.840;4.346;2023-06-04T03:08:46;15.30;99.90
25410;DHT22;13339;50.840;4.346;2023-06-04T03:11:13;15.10;99.90
25410;DHT22;13339;50.840;4.346;2023-06-04T03:13:38;15.10;99.90
25410;DHT22;13339;50.840;4.346;2023-06-04T03:16:04;15.00;99.90
25410;DHT22;13339;50.840;4.346;2023-06-04T03:18:35;14.90;99.90
25410;DHT22;13339;50.840;4.346;2023-06-04T03:21:02;14.90;99.90
25410;DHT22;13339;50.840;4.346;2023-06-04T03:23:27;15.00;99.90
25410;DHT22;13339;50.840;4.346;2023-06-04T03:25:53;15.00;99.90
25410;DHT22;13339;50.840;4.346;2023-06-04T03:28:18;15.00;99.90
25410;DHT22;13339;50.840;4.346;2023-06-04T03:30:44;15.00;99.90
25410;DHT22;13339;50.840;4.346;2023-06-04T03:33:10;14.70;99.90
25410;DHT22;13339;50.840;4.346;2023-06-04T03:35:36;14.70;99.90
25410;DHT22;13339;50.840;4.346;2023-06-04T03:38:01;14.70;99.90
25410;DHT22;13339;50.840;4.346;2023-06-04T03:40:27;14.80;99.90
25410;DHT22;13339;50.840;4.346;2023-06-04T03:42:52;14.80;99.90
25410;DHT22;13339;50.840;4.346;2023-06-04T03:45:18;14.70;99.90
25410;DHT22;13339;50.840;4.346;2023-06-04T03:47:44;14.60;99.90
25410;DHT22;13339;50.840;4.346;2023-06-04T03:50:09;14.70;99.90
25410;DHT22;13339;50.840;4.346;2023-06-04T03:52:35;14.60;99.90
25410;DHT22;13339;50.840;4.346;2023-06-04T03:55:01;14.60;99.90
25410;DHT22;13339;50.840;4.346;2023-06-04T03:57:27;14.70;99.90
25410;DHT22;13339;50.840;4.346;2023-06-04T03:59:52;14.70;99.90
25410;DHT22;13339;50.840;4.346;2023-06-04T04:02:18;14.70;99.90
25410;DHT22;13339;50.840;4.346;2023-06-04T04:04:44;14.90;99.90
25410;DHT22;13339;50.840;4.346;2023-06-04T04:07:10;14.90;99.90
25410;DHT22;13339;50.840;4.346;2023-06-04T04:09:36;15.00;99.90
25410;DHT22;13339;50.840;4.346;2023-06-04T04:12:02;15.00;99.90
25410;DHT22;13339;50.840;4.346;2023-06-04T04:14:28;14.90;99.90
25410;DHT22;13339;50.840;4.346;2023-06-04T04:16:53;14.80;99.90
25410;DHT22;13339;50.840;4.346;2023-06-04T04:19:19;14.80;99.90
25410;DHT22;13339;50.840;4.346;2023-06-04T04:21:46;14.80;99.90
25410;DHT22;13339;50.840;4.346;2023-06-04T04:24:28;14.80;99.90
25410;DHT22;13339;50.840;4.346;2023-06-04T04:26:54;14.80;99.90
25410;DHT22;13339;50.840;4.346;2023-06-04T04:29:21;14.90;99.90
25410;DHT22;13339;50.840;4.346;2023-06-04T04:31:53;14.80;99.90
25410;DHT22;13339;50.840;4.346;2023-06-04T04:34:22;14.80;99.90
25410;DHT22;13339;50.840;4.346;2023-06-04T04:36:49;14.70;99.90
25410;DHT22;13339;50.840;4.346;2023-06-04T04:39:23;14.70;99.90
25410;DHT22;13339;50.840;4.346;2023-06-04T04:41:49;14.80;99.90
25410;DHT22;13339;50.840;4.346;2023-06-04T04:44:15;14.80;99.90
25410;DHT22;13339;50.840;4.346;2023-06-04T04:46:41;14.80;99.90
25410;DHT22;13339;50.840;4.346;2023-06-04T04:49:06;14.80;99.90
25410;DHT22;13339;50.840;4.346;2023-06-04T04:51:32;14.80;99.90
25410;DHT22;13339;50.840;4.346;2023-06-04T04:53:58;14.80;99.90
25410;DHT22;13339;50.840;4.346;2023-06-04T04:56:28;14.80;99.90
25410;DHT22;13339;50.840;4.346;2023-06-04T04:58:54;14.80;99.90
25410;DHT22;13339;50.840;4.346;2023-06-04T05:01:20;14.80;99.90
25410;DHT22;13339;50.840;4.346;2023-06-04T05:03:46;14.70;99.90
25410;DHT22;13339;50.840;4.346;2023-06-04T05:06:12;14.70;99.90
25410;DHT22;13339;50.840;4.346;2023-06-04T05:08:38;14.90;99.90
25410;DHT22;13339;50.840;4.346;2023-06-04T05:11:03;15.00;99.90
25410;DHT22;13339;50.840;4.346;2023-06-04T05:13:29;15.00;99.90
25410;DHT22;13339;50.840;4.346;2023-06-04T05:15:55;15.10;99.90
25410;DHT22;13339;50.840;4.346;2023-06-04T05:18:20;15.10;99.90
25410;DHT22;13339;50.840;4.346;2023-06-04T05:20:49;15.30;99.90
25410;DHT22;13339;50.840;4.346;2023-06-04T05:23:14;15.20;99.90
25410;DHT22;13339;50.840;4.346;2023-06-04T05:25:40;15.30;99.90
25410;DHT22;13339;50.840;4.346;2023-06-04T05:28:08;15.10;99.90
25410;DHT22;13339;50.840;4.346;2023-06-04T05:30:34;15.10;99.90
25410;DHT22;13339;50.840;4.346;2023-06-04T05:33:00;15.00;99.90
25410;DHT22;13339;50.840;4.346;2023-06-04T05:35:25;15.10;99.90
25410;DHT22;13339;50.840;4.346;2023-06-04T05:37:51;15.10;99.90
25410;DHT22;13339;50.840;4.346;2023-06-04T05:40:19;15.10;99.90
25410;DHT22;13339;50.840;4.346;2023-06-04T05:42:47;15.10;99.90
25410;DHT22;13339;50.840;4.346;2023-06-04T05:45:12;15.20;99.90
25410;DHT22;13339;50.840;4.346;2023-06-04T05:47:38;15.20;99.90
25410;DHT22;13339;50.840;4.346;2023-06-04T05:50:04;15.10;99.90
25410;DHT22;13339;50.840;4.346;2023-06-04T05:52:32;15.10;99.90
25410;DHT22;13339;50.840;4.346;2023-06-04T05:54:58;15.10;99.90
25410;DHT22;13339;50.840;4.346;2023-06-04T05:57:23;15.20;99.90
25410;DHT22;13339;50.840;4.346;2023-06-04T05:59:49;15.50;99.90
25410;DHT22;13339;50.840;4.346;2023-06-04T06:02:15;15.70;99.90
25410;DHT22;13339;50.840;4.346;2023-06-04T06:04:40;15.60;99.90
25410;DHT22;13339;50.840;4.346;2023-06-04T06:07:06;15.50;99.90
25410;DHT22;13339;50.840;4.346;2023-06-04T06:09:32;15.60;99.90
25410;DHT22;13339;50.840;4.346;2023-06-04T06:11:57;15.50;99.90
25410;DHT22;13339;50.840;4.346;2023-06-04T06:14:23;15.40;99.90
25410;DHT22;13339;50.840;4.346;2023-06-04T06:16:49;15.40;99.90
25410;DHT22;13339;50.840;4.346;2023-06-04T06:19:15;15.50;99.90
25410;DHT22;13339;50.840;4.346;2023-06-04T06:21:42;15.60;99.90
25410;DHT22;13339;50.840;4.346;2023-06-04T06:24:08;15.60;99.90
25410;DHT22;13339;50.840;4.346;2023-06-04T06:26:33;15.70;99.90
25410;DHT22;13339;50.840;4.346;2023-06-04T06:28:59;15.50;99.90
25410;DHT22;13339;50.840;4.346;2023-06-04T06:31:25;15.60;99.90
25410;DHT22;13339;50.840;4.346;2023-06-04T06:33:51;15.70;99.90
25410;DHT22;13339;50.840;4.346;2023-06-04T06:36:17;15.70;99.90
25410;DHT22;13339;50.840;4.346;2023-06-04T06:38:44;15.90;99.90
25410;DHT22;13339;50.840;4.346;2023-06-04T06:41:10;16.00;99.90
25410;DHT22;13339;50.840;4.346;2023-06-04T06:43:36;16.20;99.90
25410;DHT22;13339;50.840;4.346;2023-06-04T06:46:02;16.20;99.90
25410;DHT22;13339;50.840;4.346;2023-06-04T06:48:28;16.10;99.90
25410;DHT22;13339;50.840;4.346;2023-06-04T06:50:54;16.20;99.90
25410;DHT22;13339;50.840;4.346;2023-06-04T06:53:20;16.40;99.90
25410;DHT22;13339;50.840;4.346;2023-06-04T06:55:45;16.60;99.90
25410;DHT22;13339;50.840;4.346;2023-06-04T06:58:11;16.70;99.90
25410;DHT22;13339;50.840;4.346;2023-06-04T07:00:37;16.70;99.90
25410;DHT22;13339;50.840;4.346;2023-06-04T07:03:02;16.70;99.90
25410;DHT22;13339;50.840;4.346;2023-06-04T07:05:29;16.90;99.90
25410;DHT22;13339;50.840;4.346;2023-06-04T07:07:55;16.90;99.90
25410;DHT22;13339;50.840;4.346;2023-06-04T07:10:22;17.00;99.90
25410;DHT22;13339;50.840;4.346;2023-06-04T07:12:48;17.00;99.90
25410;DHT22;13339;50.840;4.346;2023-06-04T07:15:14;17.10;99.90
25410;DHT22;13339;50.840;4.346;2023-06-04T07:17:39;17.00;99.90
25410;DHT22;13339;50.840;4.346;2023-06-04T07:20:06;17.20;99.90
25410;DHT22;13339;50.840;4.346;2023-06-04T07:22:34;17.30;99.90
25410;DHT22;13339;50.840;4.346;2023-06-04T07:24:59;17.40;99.90
25410;DHT22;13339;50.840;4.346;2023-06-04T07:27:25;17.40;99.90
25410;DHT22;13339;50.840;4.346;2023-06-04T07:29:52;17.50;99.90
25410;DHT22;13339;50.840;4.346;2023-06-04T07:32:17;17.70;99.90
25410;DHT22;13339;50.840;4.346;2023-06-04T07:34:43;17.90;99.90
25410;DHT22;13339;50.840;4.346;2023-06-04T07:37:09;18.10;99.90
25410;DHT22;13339;50.840;4.346;2023-06-04T07:39:35;18.20;99.90
25410;DHT22;13339;50.840;4.346;2023-06-04T07:42:01;18.60;99.90
25410;DHT22;13339;50.840;4.346;2023-06-04T07:44:27;19.40;99.90
25410;DHT22;13339;50.840;4.346;2023-06-04T07:46:52;20.60;99.90
25410;DHT22;13339;50.840;4.346;2023-06-04T07:49:18;22.00;99.90
25410;DHT22;13339;50.840;4.346;2023-06-04T07:51:43;22.00;99.90
25410;DHT22;13339;50.840;4.346;2023-06-04T07:54:09;23.20;99.90
25410;DHT22;13339;50.840;4.346;2023-06-04T07:56:35;23.20;99.90
25410;DHT22;13339;50.840;4.346;2023-06-04T07:59:01;23.60;99.90
25410;DHT22;13339;50.840;4.346;2023-06-04T08:01:27;23.60;99.90
25410;DHT22;13339;50.840;4.346;2023-06-04T08:03:52;23.50;99.50
25410;DHT22;13339;50.840;4.346;2023-06-04T08:06:18;23.50;99.30
25410;DHT22;13339;50.840;4.346;2023-06-04T08:08:44;23.70;98.90
25410;DHT22;13339;50.840;4.346;2023-06-04T08:11:15;23.60;98.30
25410;DHT22;13339;50.840;4.346;2023-06-04T08:13:41;24.20;98.20
25410;DHT22;13339;50.840;4.346;2023-06-04T08:16:07;23.60;97.40
25410;DHT22;13339;50.840;4.346;2023-06-04T08:18:38;23.20;98.10
25410;DHT22;13339;50.840;4.346;2023-06-04T08:21:03;22.90;98.80
25410;DHT22;13339;50.840;4.346;2023-06-04T08:23:29;22.90;98.20
25410;DHT22;13339;50.840;4.346;2023-06-04T08:25:54;22.40;99.40
25410;DHT22;13339;50.840;4.346;2023-06-04T08:28:20;22.50;98.90
25410;DHT22;13339;50.840;4.346;2023-06-04T08:30:46;22.30;99.30
25410;DHT22;13339;50.840;4.346;2023-06-04T08:33:12;22.00;99.60
25410;DHT22;13339;50.840;4.346;2023-06-04T08:35:37;21.70;99.90
25410;DHT22;13339;50.840;4.346;2023-06-04T08:38:03;21.30;99.90
25410;DHT22;13339;50.840;4.346;2023-06-04T08:40:28;21.10;99.90
25410;DHT22;13339;50.840;4.346;2023-06-04T08:42:56;21.20;99.90
25410;DHT22;13339;50.840;4.346;2023-06-04T08:45:24;21.30;99.90
25410;DHT22;13339;50.840;4.346;2023-06-04T08:47:52;21.10;99.90
25410;DHT22;13339;50.840;4.346;2023-06-04T08:50:20;20.80;99.90
25410;DHT22;13339;50.840;4.346;2023-06-04T08:52:46;20.70;99.90
25410;DHT22;13339;50.840;4.346;2023-06-04T08:55:13;20.80;99.90
25410;DHT22;13339;50.840;4.346;2023-06-04T08:57:40;20.90;99.90
25410;DHT22;13339;50.840;4.346;2023-06-04T09:00:06;21.10;99.90
25410;DHT22;13339;50.840;4.346;2023-06-04T09:02:36;21.10;99.90
25410;DHT22;13339;50.840;4.346;2023-06-04T09:05:04;21.00;99.90
25410;DHT22;13339;50.840;4.346;2023-06-04T09:07:30;21.00;99.90
25410;DHT22;13339;50.840;4.346;2023-06-04T09:09:56;20.90;99.90
25410;DHT22;13339;50.840;4.346;2023-06-04T09:12:24;20.90;99.90
25410;DHT22;13339;50.840;4.346;2023-06-04T09:14:51;21.10;99.90
25410;DHT22;13339;50.840;4.346;2023-06-04T09:17:24;21.10;99.40
25410;DHT22;13339;50.840;4.346;2023-06-04T09:19:50;21.00;99.60
25410;DHT22;13339;50.840;4.346;2023-06-04T09:22:16;21.00;99.90
25410;DHT22;13339;50.840;4.346;2023-06-04T09:24:43;21.20;99.60
25410;DHT22;13339;50.840;4.346;2023-06-04T09:27:12;21.30;99.40
25410;DHT22;13339;50.840;4.346;2023-06-04T09:29:39;21.40;99.30
25410;DHT22;13339;50.840;4.346;2023-06-04T09:32:04;21.40;99.30
25410;DHT22;13339;50.840;4.346;2023-06-04T09:34:30;21.50;99.20
25410;DHT22;13339;50.840;4.346;2023-06-04T09:36:56;21.70;99.50
25410;DHT22;13339;50.840;4.346;2023-06-04T09:39:22;21.70;98.90
25410;DHT22;13339;50.840;4.346;2023-06-04T09:42:01;21.70;98.80
25410;DHT22;13339;50.840;4.346;2023-06-04T09:44:29;21.50;98.90
25410;DHT22;13339;50.840;4.346;2023-06-04T09:46:58;21.60;98.90
25410;DHT22;13339;50.840;4.346;2023-06-04T09:49:24;21.70;98.50
25410;DHT22;13339;50.840;4.346;2023-06-04T09:51:50;21.80;98.00
25410;DHT22;13339;50.840;4.346;2023-06-04T09:54:16;21.90;97.80
25410;DHT22;13339;50.840;4.346;2023-06-04T09:56:42;21.90;97.80
25410;DHT22;13339;50.840;4.346;2023-06-04T09:59:09;21.90;97.30
25410;DHT22;13339;50.840;4.346;2023-06-04T10:01:39;21.90;97.50
25410;DHT22;13339;50.840;4.346;2023-06-04T10:04:07;22.10;97.60
25410;DHT22;13339;50.840;4.346;2023-06-04T10:06:35;22.20;96.80
25410;DHT22;13339;50.840;4.346;2023-06-04T10:09:12;22.40;96.60
25410;DHT22;13339;50.840;4.346;2023-06-04T10:11:47;22.30;97.00
25410;DHT22;13339;50.840;4.346;2023-06-04T10:14:22;22.50;97.10
25410;DHT22;13339;50.840;4.346;2023-06-04T10:16:50;22.50;96.80
25410;DHT22;13339;50.840;4.346;2023-06-04T10:19:18;22.50;97.00
25410;DHT22;13339;50.840;4.346;2023-06-04T10:21:44;22.70;96.80
25410;DHT22;13339;50.840;4.346;2023-06-04T10:24:11;22.70;96.50
25410;DHT22;13339;50.840;4.346;2023-06-04T10:26:37;22.70;96.30
25410;DHT22;13339;50.840;4.346;2023-06-04T10:29:06;22.80;96.50
25410;DHT22;13339;50.840;4.346;2023-06-04T10:31:32;22.70;96.40
25410;DHT22;13339;50.840;4.346;2023-06-04T10:33:58;22.60;96.00
25410;DHT22;13339;50.840;4.346;2023-06-04T10:36:24;22.70;96.40
25410;DHT22;13339;50.840;4.346;2023-06-04T10:38:54;23.00;96.20
25410;DHT22;13339;50.840;4.346;2023-06-04T10:41:21;23.10;95.60
25410;DHT22;13339;50.840;4.346;2023-06-04T10:43:49;23.00;95.90
25410;DHT22;13339;50.840;4.346;2023-06-04T10:46:17;22.90;95.40
25410;DHT22;13339;50.840;4.346;2023-06-04T10:48:50;23.10;95.80
25410;DHT22;13339;50.840;4.346;2023-06-04T10:51:32;23.20;95.70
25410;DHT22;13339;50.840;4.346;2023-06-04T10:53:58;23.00;95.50
25410;DHT22;13339;50.840;4.346;2023-06-04T10:56:28;23.00;95.50
25410;DHT22;13339;50.840;4.346;2023-06-04T10:58:55;23.10;94.60
25410;DHT22;13339;50.840;4.346;2023-06-04T11:01:28;23.30;94.90
25410;DHT22;13339;50.840;4.346;2023-06-04T11:03:54;23.50;94.70
25410;DHT22;13339;50.840;4.346;2023-06-04T11:06:21;23.60;94.50
25410;DHT22;13339;50.840;4.346;2023-06-04T11:08:47;23.70;94.70
25410;DHT22;13339;50.840;4.346;2023-06-04T11:11:14;23.80;95.00
25410;DHT22;13339;50.840;4.346;2023-06-04T11:13:40;23.50;94.50
25410;DHT22;13339;50.840;4.346;2023-06-04T11:18:41;23.30;94.80
25410;DHT22;13339;50.840;4.346;2023-06-04T11:21:07;23.00;94.90
25410;DHT22;13339;50.840;4.346;2023-06-04T11:23:33;23.00;95.00
25410;DHT22;13339;50.840;4.346;2023-06-04T11:25:59;23.20;95.00
25410;DHT22;13339;50.840;4.346;2023-06-04T11:28:25;23.40;94.70
25410;DHT22;13339;50.840;4.346;2023-06-04T11:33:23;23.60;93.70
25410;DHT22;13339;50.840;4.346;2023-06-04T11:35:48;23.80;93.80
25410;DHT22;13339;50.840;4.346;2023-06-04T11:38:14;23.90;92.90
25410;DHT22;13339;50.840;4.346;2023-06-04T11:40:40;24.00;93.10
25410;DHT22;13339;50.840;4.346;2023-06-04T11:43:10;24.10;93.10
25410;DHT22;13339;50.840;4.346;2023-06-04T11:45:36;23.90;93.50
25410;DHT22;13339;50.840;4.346;2023-06-04T11:48:04;24.00;93.50
25410;DHT22;13339;50.840;4.346;2023-06-04T11:50:31;24.20;93.30
25410;DHT22;13339;50.840;4.346;2023-06-04T11:52:56;24.20;93.10
25410;DHT22;13339;50.840;4.346;2023-06-04T11:55:22;24.10;92.90
25410;DHT22;13339;50.840;4.346;2023-06-04T11:57:49;23.70;93.30
25410;DHT22;13339;50.840;4.346;2023-06-04T12:00:16;24.00;93.10
25410;DHT22;13339;50.840;4.346;2023-06-04T12:02:55;24.00;92.90
25410;DHT22;13339;50.840;4.346;2023-06-04T12:05:31;23.90;92.90
25410;DHT22;13339;50.840;4.346;2023-06-04T12:08:10;23.80;92.90
25410;DHT22;13339;50.840;4.346;2023-06-04T12:10:43;23.80;93.20
25410;DHT22;13339;50.840;4.346;2023-06-04T12:13:09;24.00;92.70
25410;DHT22;13339;50.840;4.346;2023-06-04T12:15:35;24.30;92.60
25410;DHT22;13339;50.840;4.346;2023-06-04T12:18:01;24.50;92.10
25410;DHT22;13339;50.840;4.346;2023-06-04T12:20:38;24.60;92.20
25410;DHT22;13339;50.840;4.346;2023-06-04T12:23:04;24.80;92.10
25410;DHT22;13339;50.840;4.346;2023-06-04T12:25:32;25.00;92.20
25410;DHT22;13339;50.840;4.346;2023-06-04T12:27:58;25.10;91.40
25410;DHT22;13339;50.840;4.346;2023-06-04T12:30:38;25.10;90.90
25410;DHT22;13339;50.840;4.346;2023-06-04T12:33:05;24.80;90.90
25410;DHT22;13339;50.840;4.346;2023-06-04T12:35:31;24.70;91.30
25410;DHT22;13339;50.840;4.346;2023-06-04T12:37:56;24.70;91.30
25410;DHT22;13339;50.840;4.346;2023-06-04T12:40:22;24.90;91.60
25410;DHT22;13339;50.840;4.346;2023-06-04T12:42:50;25.20;91.10
25410;DHT22;13339;50.840;4.346;2023-06-04T12:45:17;25.20;90.70
25410;DHT22;13339;50.840;4.346;2023-06-04T12:47:43;25.20;90.80
25410;DHT22;13339;50.840;4.346;2023-06-04T12:50:09;25.30;90.50
25410;DHT22;13339;50.840;4.346;2023-06-04T12:52:35;25.20;90.40
25410;DHT22;13339;50.840;4.346;2023-06-04T12:55:01;25.20;90.80
25410;DHT22;13339;50.840;4.346;2023-06-04T12:57:27;25.50;90.40
25410;DHT22;13339;50.840;4.346;2023-06-04T12:59:52;25.20;90.00
25410;DHT22;13339;50.840;4.346;2023-06-04T13:02:18;25.20;90.40
25410;DHT22;13339;50.840;4.346;2023-06-04T13:04:43;25.40;90.40
25410;DHT22;13339;50.840;4.346;2023-06-04T13:07:11;25.30;90.00
25410;DHT22;13339;50.840;4.346;2023-06-04T13:09:37;24.80;90.20
25410;DHT22;13339;50.840;4.346;2023-06-04T13:12:05;24.60;90.70
25410;DHT22;13339;50.840;4.346;2023-06-04T13:14:31;24.80;90.50
25410;DHT22;13339;50.840;4.346;2023-06-04T13:16:59;24.80;90.60
25410;DHT22;13339;50.840;4.346;2023-06-04T13:19:24;24.90;90.00
25410;DHT22;13339;50.840;4.346;2023-06-04T13:21:51;24.80;90.00
25410;DHT22;13339;50.840;4.346;2023-06-04T13:24:17;24.60;90.00
25410;DHT22;13339;50.840;4.346;2023-06-04T13:26:42;24.60;90.20
25410;DHT22;13339;50.840;4.346;2023-06-04T13:29:08;24.70;90.00
25410;DHT22;13339;50.840;4.346;2023-06-04T13:31:33;24.80;89.80
25410;DHT22;13339;50.840;4.346;2023-06-04T13:33:59;24.90;90.00
25410;DHT22;13339;50.840;4.346;2023-06-04T13:36:24;24.70;90.00
25410;DHT22;13339;50.840;4.346;2023-06-04T13:38:50;24.70;90.20
25410;DHT22;13339;50.840;4.346;2023-06-04T13:41:18;24.90;90.40
25410;DHT22;13339;50.840;4.346;2023-06-04T13:43:43;25.10;89.40
25410;DHT22;13339;50.840;4.346;2023-06-04T13:46:09;25.20;89.20
25410;DHT22;13339;50.840;4.346;2023-06-04T13:48:34;25.40;88.60
25410;DHT22;13339;50.840;4.346;2023-06-04T13:51:00;25.60;88.10
25410;DHT22;13339;50.840;4.346;2023-06-04T13:53:26;25.50;87.50
25410;DHT22;13339;50.840;4.346;2023-06-04T13:55:51;25.40;87.60
25410;DHT22;13339;50.840;4.346;2023-06-04T13:58:23;25.40;87.10
25410;DHT22;13339;50.840;4.346;2023-06-04T14:00:49;25.40;87.60
25410;DHT22;13339;50.840;4.346;2023-06-04T14:03:15;25.40;87.40
25410;DHT22;13339;50.840;4.346;2023-06-04T14:05:40;25.10;87.20
25410;DHT22;13339;50.840;4.346;2023-06-04T14:08:06;25.00;87.60
25410;DHT22;13339;50.840;4.346;2023-06-04T14:10:31;25.10;87.40
25410;DHT22;13339;50.840;4.346;2023-06-04T14:12:57;25.20;87.60
25410;DHT22;13339;50.840;4.346;2023-06-04T14:15:22;25.50;87.30
25410;DHT22;13339;50.840;4.346;2023-06-04T14:17:48;25.60;86.90
25410;DHT22;13339;50.840;4.346;2023-06-04T14:20:14;25.50;86.10
25410;DHT22;13339;50.840;4.346;2023-06-04T14:22:40;25.10;86.70
25410;DHT22;13339;50.840;4.346;2023-06-04T14:25:07;25.20;87.20
25410;DHT22;13339;50.840;4.346;2023-06-04T14:27:35;25.30;87.40
25410;DHT22;13339;50.840;4.346;2023-06-04T14:30:04;25.50;87.00
25410;DHT22;13339;50.840;4.346;2023-06-04T14:32:32;25.60;86.50
25410;DHT22;13339;50.840;4.346;2023-06-04T14:34:59;25.70;85.90
25410;DHT22;13339;50.840;4.346;2023-06-04T14:37:25;25.80;85.40
25410;DHT22;13339;50.840;4.346;2023-06-04T14:39:50;25.80;84.30
25410;DHT22;13339;50.840;4.346;2023-06-04T14:42:16;25.70;84.10
25410;DHT22;13339;50.840;4.346;2023-06-04T14:44:42;25.50;84.10
25410;DHT22;13339;50.840;4.346;2023-06-04T14:47:07;25.30;83.90
25410;DHT22;13339;50.840;4.346;2023-06-04T14:49:33;25.00;84.20
25410;DHT22;13339;50.840;4.346;2023-06-04T14:51:58;25.00;84.50
25410;DHT22;13339;50.840;4.346;2023-06-04T14:54:25;25.20;84.80
25410;DHT22;13339;50.840;4.346;2023-06-04T14:56:50;25.40;84.20
25410;DHT22;13339;50.840;4.346;2023-06-04T14:59:16;25.20;84.10
25410;DHT22;13339;50.840;4.346;2023-06-04T15:01:42;25.20;84.30
25410;DHT22;13339;50.840;4.346;2023-06-04T15:04:08;25.30;83.80
25410;DHT22;13339;50.840;4.346;2023-06-04T15:06:34;25.10;83.60
25410;DHT22;13339;50.840;4.346;2023-06-04T15:09:00;25.20;83.70
25410;DHT22;13339;50.840;4.346;2023-06-04T15:11:26;25.40;84.80
25410;DHT22;13339;50.840;4.346;2023-06-04T15:13:54;25.60;84.10
25410;DHT22;13339;50.840;4.346;2023-06-04T15:16:21;25.90;83.90
25410;DHT22;13339;50.840;4.346;2023-06-04T15:18:47;26.00;82.90
25410;DHT22;13339;50.840;4.346;2023-06-04T15:21:13;25.80;82.50
25410;DHT22;13339;50.840;4.346;2023-06-04T15:23:39;25.30;83.30
25410;DHT22;13339;50.840;4.346;2023-06-04T15:26:05;25.40;83.30
25410;DHT22;13339;50.840;4.346;2023-06-04T15:28:30;25.50;82.50
25410;DHT22;13339;50.840;4.346;2023-06-04T15:30:56;25.60;82.10
25410;DHT22;13339;50.840;4.346;2023-06-04T15:33:22;25.60;82.10
25410;DHT22;13339;50.840;4.346;2023-06-04T15:35:48;25.60;81.90